Airfield :
LOGIN :

Register | Disclaimer

   EN    FR    IT 

 










Legend :    VFR   Marginal VFR   IFR   Intensive IFR   Very Intensive IFR
Visi :
Ceiling :
>= 8 km
>= 3000ft
5 to 8 km
1000 to 3000 ft
1500m to 5 km
500 to 1000 ft
800 to 1500m
200 to 500 ft
< 800m
< 200 ft
Symbols :   Thunderstorms  Fog  Heavy snow  Heavy precipitations  Wind > 20 kt
SIGMETs :     Misc.  Thunderstorms  Icing  Turbulence  Mountain Waves  Volcanic Ashes






- Airport Elevation : 157 ft
- IATA code : SXF


EDDB - Berlin Schönefeld

CURRENT METAR :
  • 220020Z AUTO 18007KT CAVOK 08/03 Q1005 NOSIG

EXPIRED METARs :
  • 212350Z AUTO 18006KT CAVOK 08/03 Q1005 NOSIG
  • 212320Z AUTO 19007KT CAVOK 08/03 Q1006 NOSIG
  • 212250Z AUTO 19007KT CAVOK 08/04 Q1006 NOSIG
  • 212220Z AUTO 19007KT CAVOK 08/04 Q1007 NOSIG
  • 212150Z AUTO 18007KT CAVOK 08/04 Q1007 NOSIG
  • 212120Z AUTO 18007KT CAVOK 07/04 Q1008 NOSIG
  • 212050Z AUTO 18008KT CAVOK 08/04 Q1008 NOSIG
  • 212020Z AUTO 19008KT CAVOK 08/04 Q1009 NOSIG
  • 211950Z AUTO 17009KT CAVOK 08/05 Q1009 NOSIG

TAF TAF EDDB
Valid from the 22 at 00:00 until the 23 at 00:00 UTC


212300Z 2200/2224 17008KT 9999 BKN035
BECMG 2202/2204 18013KT
PROB30
TEMPO 2207/2212 4500 -RADZ BKN013
TEMPO 2219/2221 18015G25KT RA
BECMG 2221/2224 22015G25KT



MET'MAP, your aeronautical weather chart ! - Copyright ORBIFLY December 2007 - Disclaimer

ORBIFLY MET'MAP TEAM :

Programming & Development : Alexandra Zaïnal
Original concept : Baudouin d'Aumeries
Technical & hardware support : Manuel Goepfert
Assistance : Marc-Olivier Méhu




SOURCES & CREDITS :

   NOAA